sensor_id;sensor_type;location;lat;lon;timestamp;P1;durP1;ratioP1;P2;durP2;ratioP2
46721;SDS011;32455;43.430;23.136;2023-08-30T00:02:25;11.38;;;8.85;;
46721;SDS011;32455;43.430;23.136;2023-08-30T00:05:10;12.10;;;9.50;;
46721;SDS011;32455;43.430;23.136;2023-08-30T00:07:54;14.35;;;9.23;;
46721;SDS011;32455;43.430;23.136;2023-08-30T00:10:39;11.52;;;9.02;;
46721;SDS011;32455;43.430;23.136;2023-08-30T00:13:29;10.20;;;8.65;;
46721;SDS011;32455;43.430;23.136;2023-08-30T00:16:16;13.60;;;8.30;;
46721;SDS011;32455;43.430;23.136;2023-08-30T00:19:02;8.90;;;8.00;;
46721;SDS011;32455;43.430;23.136;2023-08-30T00:21:47;15.10;;;9.55;;
46721;SDS011;32455;43.430;23.136;2023-08-30T00:24:32;10.25;;;9.15;;
46721;SDS011;32455;43.430;23.136;2023-08-30T00:27:18;10.65;;;8.75;;
46721;SDS011;32455;43.430;23.136;2023-08-30T00:30:05;14.45;;;9.73;;
46721;SDS011;32455;43.430;23.136;2023-08-30T00:32:53;12.40;;;9.60;;
46721;SDS011;32455;43.430;23.136;2023-08-30T00:35:39;17.88;;;10.60;;
46721;SDS011;32455;43.430;23.136;2023-08-30T00:38:25;11.57;;;10.25;;
46721;SDS011;32455;43.430;23.136;2023-08-30T00:41:13;16.02;;;11.02;;
46721;SDS011;32455;43.430;23.136;2023-08-30T00:43:58;16.15;;;10.70;;
46721;SDS011;32455;43.430;23.136;2023-08-30T00:46:43;13.70;;;10.57;;
46721;SDS011;32455;43.430;23.136;2023-08-30T00:49:32;15.38;;;11.10;;
46721;SDS011;32455;43.430;23.136;2023-08-30T00:52:17;13.27;;;10.23;;
46721;SDS011;32455;43.430;23.136;2023-08-30T00:55:03;13.48;;;10.35;;
46721;SDS011;32455;43.430;23.136;2023-08-30T00:57:49;12.40;;;9.35;;
46721;SDS011;32455;43.430;23.136;2023-08-30T01:00:34;14.90;;;9.05;;
46721;SDS011;32455;43.430;23.136;2023-08-30T01:03:19;12.95;;;9.63;;
46721;SDS011;32455;43.430;23.136;2023-08-30T01:06:06;13.40;;;9.13;;
46721;SDS011;32455;43.430;23.136;2023-08-30T01:08:52;12.15;;;9.13;;
46721;SDS011;32455;43.430;23.136;2023-08-30T01:11:43;10.57;;;9.45;;
46721;SDS011;32455;43.430;23.136;2023-08-30T01:14:38;13.77;;;8.85;;
46721;SDS011;32455;43.430;23.136;2023-08-30T01:17:24;12.77;;;8.57;;
46721;SDS011;32455;43.430;23.136;2023-08-30T01:20:11;9.60;;;7.88;;
46721;SDS011;32455;43.430;23.136;2023-08-30T01:26:05;10.70;;;8.05;;
46721;SDS011;32455;43.430;23.136;2023-08-30T01:28:56;11.95;;;8.20;;
46721;SDS011;32455;43.430;23.136;2023-08-30T01:31:45;14.48;;;9.15;;
46721;SDS011;32455;43.430;23.136;2023-08-30T01:34:32;13.05;;;8.63;;
46721;SDS011;32455;43.430;23.136;2023-08-30T01:37:19;12.73;;;9.20;;
46721;SDS011;32455;43.430;23.136;2023-08-30T01:40:05;11.38;;;8.68;;
46721;SDS011;32455;43.430;23.136;2023-08-30T01:42:52;10.20;;;8.23;;
46721;SDS011;32455;43.430;23.136;2023-08-30T01:45:40;9.63;;;8.68;;
46721;SDS011;32455;43.430;23.136;2023-08-30T01:48:26;15.88;;;9.80;;
46721;SDS011;32455;43.430;23.136;2023-08-30T01:51:14;16.20;;;9.93;;
46721;SDS011;32455;43.430;23.136;2023-08-30T01:54:01;13.25;;;9.00;;
46721;SDS011;32455;43.430;23.136;2023-08-30T01:56:48;15.75;;;9.13;;
46721;SDS011;32455;43.430;23.136;2023-08-30T01:59:34;14.13;;;8.93;;
46721;SDS011;32455;43.430;23.136;2023-08-30T02:02:19;12.48;;;8.63;;
46721;SDS011;32455;43.430;23.136;2023-08-30T02:05:05;12.73;;;9.00;;
46721;SDS011;32455;43.430;23.136;2023-08-30T02:11:01;13.68;;;9.25;;
46721;SDS011;32455;43.430;23.136;2023-08-30T02:13:50;12.45;;;8.82;;
46721;SDS011;32455;43.430;23.136;2023-08-30T02:16:38;12.32;;;9.05;;
46721;SDS011;32455;43.430;23.136;2023-08-30T02:19:26;13.48;;;8.82;;
46721;SDS011;32455;43.430;23.136;2023-08-30T02:22:11;12.23;;;9.07;;
46721;SDS011;32455;43.430;23.136;2023-08-30T02:24:57;11.25;;;9.82;;
46721;SDS011;32455;43.430;23.136;2023-08-30T02:27:42;13.48;;;10.43;;
46721;SDS011;32455;43.430;23.136;2023-08-30T02:30:28;12.48;;;10.20;;
46721;SDS011;32455;43.430;23.136;2023-08-30T02:33:14;13.40;;;10.23;;
46721;SDS011;32455;43.430;23.136;2023-08-30T02:35:59;12.27;;;9.48;;
46721;SDS011;32455;43.430;23.136;2023-08-30T02:38:44;11.93;;;9.20;;
46721;SDS011;32455;43.430;23.136;2023-08-30T02:41:30;11.27;;;9.80;;
46721;SDS011;32455;43.430;23.136;2023-08-30T02:44:15;10.82;;;9.43;;
46721;SDS011;32455;43.430;23.136;2023-08-30T02:47:00;15.38;;;9.77;;
46721;SDS011;32455;43.430;23.136;2023-08-30T02:49:46;14.00;;;9.30;;
46721;SDS011;32455;43.430;23.136;2023-08-30T02:52:30;10.90;;;9.00;;
46721;SDS011;32455;43.430;23.136;2023-08-30T02:55:14;17.67;;;9.13;;
46721;SDS011;32455;43.430;23.136;2023-08-30T02:57:59;12.02;;;9.45;;
46721;SDS011;32455;43.430;23.136;2023-08-30T03:00:45;16.83;;;9.48;;
46721;SDS011;32455;43.430;23.136;2023-08-30T03:03:31;14.07;;;9.20;;
46721;SDS011;32455;43.430;23.136;2023-08-30T03:06:16;13.05;;;9.70;;
46721;SDS011;32455;43.430;23.136;2023-08-30T03:09:02;10.95;;;9.85;;
46721;SDS011;32455;43.430;23.136;2023-08-30T03:11:47;13.48;;;10.85;;
46721;SDS011;32455;43.430;23.136;2023-08-30T03:14:32;19.15;;;10.40;;
46721;SDS011;32455;43.430;23.136;2023-08-30T03:17:18;15.02;;;10.30;;
46721;SDS011;32455;43.430;23.136;2023-08-30T03:20:03;15.25;;;9.05;;
46721;SDS011;32455;43.430;23.136;2023-08-30T03:22:49;12.00;;;9.40;;
46721;SDS011;32455;43.430;23.136;2023-08-30T03:25:34;14.80;;;9.18;;
46721;SDS011;32455;43.430;23.136;2023-08-30T03:28:19;13.23;;;9.20;;
46721;SDS011;32455;43.430;23.136;2023-08-30T03:31:11;13.52;;;8.88;;
46721;SDS011;32455;43.430;23.136;2023-08-30T03:33:58;12.15;;;8.82;;
46721;SDS011;32455;43.430;23.136;2023-08-30T03:36:43;10.27;;;8.90;;
46721;SDS011;32455;43.430;23.136;2023-08-30T03:39:29;12.23;;;8.25;;
46721;SDS011;32455;43.430;23.136;2023-08-30T03:42:14;10.70;;;8.70;;
46721;SDS011;32455;43.430;23.136;2023-08-30T03:44:59;11.20;;;7.82;;
46721;SDS011;32455;43.430;23.136;2023-08-30T03:47:45;10.70;;;8.20;;
46721;SDS011;32455;43.430;23.136;2023-08-30T03:50:30;15.60;;;8.35;;
46721;SDS011;32455;43.430;23.136;2023-08-30T03:53:15;14.75;;;8.55;;
46721;SDS011;32455;43.430;23.136;2023-08-30T03:56:01;12.80;;;8.27;;
46721;SDS011;32455;43.430;23.136;2023-08-30T03:58:48;14.48;;;9.10;;
46721;SDS011;32455;43.430;23.136;2023-08-30T04:01:33;14.82;;;8.52;;
46721;SDS011;32455;43.430;23.136;2023-08-30T04:04:19;14.30;;;9.13;;
46721;SDS011;32455;43.430;23.136;2023-08-30T04:07:04;10.80;;;8.82;;
46721;SDS011;32455;43.430;23.136;2023-08-30T04:09:49;13.88;;;9.13;;
46721;SDS011;32455;43.430;23.136;2023-08-30T04:12:35;10.10;;;8.80;;
46721;SDS011;32455;43.430;23.136;2023-08-30T04:15:20;13.30;;;9.27;;
46721;SDS011;32455;43.430;23.136;2023-08-30T04:18:08;12.60;;;9.18;;
46721;SDS011;32455;43.430;23.136;2023-08-30T04:20:53;11.88;;;9.30;;
46721;SDS011;32455;43.430;23.136;2023-08-30T04:23:38;10.50;;;8.82;;
46721;SDS011;32455;43.430;23.136;2023-08-30T04:26:24;10.57;;;8.93;;
46721;SDS011;32455;43.430;23.136;2023-08-30T04:29:09;13.35;;;8.35;;
46721;SDS011;32455;43.430;23.136;2023-08-30T04:31:54;11.75;;;8.25;;
46721;SDS011;32455;43.430;23.136;2023-08-30T04:34:40;11.32;;;8.57;;
46721;SDS011;32455;43.430;23.136;2023-08-30T04:37:29;13.80;;;8.75;;
46721;SDS011;32455;43.430;23.136;2023-08-30T04:40:18;11.52;;;8.35;;
46721;SDS011;32455;43.430;23.136;2023-08-30T04:43:03;10.60;;;8.32;;
46721;SDS011;32455;43.430;23.136;2023-08-30T04:45:48;13.10;;;8.18;;
46721;SDS011;32455;43.430;23.136;2023-08-30T04:48:33;10.20;;;8.98;;
46721;SDS011;32455;43.430;23.136;2023-08-30T04:51:19;9.50;;;8.20;;
46721;SDS011;32455;43.430;23.136;2023-08-30T04:54:04;11.10;;;9.18;;
46721;SDS011;32455;43.430;23.136;2023-08-30T04:56:50;10.60;;;8.85;;
46721;SDS011;32455;43.430;23.136;2023-08-30T04:59:36;18.67;;;8.88;;
46721;SDS011;32455;43.430;23.136;2023-08-30T05:02:22;14.32;;;9.18;;
46721;SDS011;32455;43.430;23.136;2023-08-30T05:05:08;15.63;;;10.02;;
46721;SDS011;32455;43.430;23.136;2023-08-30T05:07:54;12.43;;;8.98;;
46721;SDS011;32455;43.430;23.136;2023-08-30T05:10:40;11.40;;;8.52;;
46721;SDS011;32455;43.430;23.136;2023-08-30T05:13:25;9.40;;;8.32;;
46721;SDS011;32455;43.430;23.136;2023-08-30T05:16:10;9.70;;;7.97;;
46721;SDS011;32455;43.430;23.136;2023-08-30T05:18:56;10.15;;;7.60;;
46721;SDS011;32455;43.430;23.136;2023-08-30T05:21:41;10.63;;;8.27;;
46721;SDS011;32455;43.430;23.136;2023-08-30T05:24:26;9.75;;;7.63;;
46721;SDS011;32455;43.430;23.136;2023-08-30T05:27:12;12.20;;;7.93;;
46721;SDS011;32455;43.430;23.136;2023-08-30T05:29:59;11.70;;;7.80;;
46721;SDS011;32455;43.430;23.136;2023-08-30T05:32:44;11.30;;;7.53;;
46721;SDS011;32455;43.430;23.136;2023-08-30T05:35:30;11.45;;;8.57;;
46721;SDS011;32455;43.430;23.136;2023-08-30T05:38:15;9.77;;;7.22;;
46721;SDS011;32455;43.430;23.136;2023-08-30T05:41:00;12.57;;;7.40;;
46721;SDS011;32455;43.430;23.136;2023-08-30T05:43:46;9.45;;;7.70;;
46721;SDS011;32455;43.430;23.136;2023-08-30T05:46:31;11.02;;;7.85;;
46721;SDS011;32455;43.430;23.136;2023-08-30T05:49:16;14.55;;;7.88;;
46721;SDS011;32455;43.430;23.136;2023-08-30T05:52:02;12.88;;;7.45;;
46721;SDS011;32455;43.430;23.136;2023-08-30T05:54:48;9.15;;;7.70;;
46721;SDS011;32455;43.430;23.136;2023-08-30T05:57:33;8.95;;;7.65;;
46721;SDS011;32455;43.430;23.136;2023-08-30T06:00:19;13.68;;;7.85;;
46721;SDS011;32455;43.430;23.136;2023-08-30T06:03:04;14.73;;;8.48;;
46721;SDS011;32455;43.430;23.136;2023-08-30T06:05:50;8.02;;;7.10;;
46721;SDS011;32455;43.430;23.136;2023-08-30T06:08:35;9.40;;;7.30;;
46721;SDS011;32455;43.430;23.136;2023-08-30T06:11:21;11.65;;;7.25;;
46721;SDS011;32455;43.430;23.136;2023-08-30T06:14:07;13.02;;;7.95;;
46721;SDS011;32455;43.430;23.136;2023-08-30T06:16:52;10.02;;;7.55;;
46721;SDS011;32455;43.430;23.136;2023-08-30T06:19:38;12.10;;;7.65;;
46721;SDS011;32455;43.430;23.136;2023-08-30T06:22:23;9.48;;;7.53;;
46721;SDS011;32455;43.430;23.136;2023-08-30T06:25:08;9.05;;;7.53;;
46721;SDS011;32455;43.430;23.136;2023-08-30T06:27:59;11.55;;;7.85;;
46721;SDS011;32455;43.430;23.136;2023-08-30T06:30:45;13.25;;;7.68;;
46721;SDS011;32455;43.430;23.136;2023-08-30T06:33:30;14.88;;;8.82;;
46721;SDS011;32455;43.430;23.136;2023-08-30T06:36:16;10.65;;;7.93;;
46721;SDS011;32455;43.430;23.136;2023-08-30T06:39:02;14.98;;;8.30;;
46721;SDS011;32455;43.430;23.136;2023-08-30T06:41:47;11.90;;;8.63;;
46721;SDS011;32455;43.430;23.136;2023-08-30T06:44:32;10.35;;;7.75;;
46721;SDS011;32455;43.430;23.136;2023-08-30T06:47:18;9.48;;;7.28;;
46721;SDS011;32455;43.430;23.136;2023-08-30T06:50:03;14.15;;;8.35;;
46721;SDS011;32455;43.430;23.136;2023-08-30T06:52:49;15.65;;;7.05;;
46721;SDS011;32455;43.430;23.136;2023-08-30T06:55:34;11.25;;;7.22;;
46721;SDS011;32455;43.430;23.136;2023-08-30T06:58:21;8.45;;;7.07;;
46721;SDS011;32455;43.430;23.136;2023-08-30T07:01:06;10.93;;;7.85;;
46721;SDS011;32455;43.430;23.136;2023-08-30T07:03:52;9.18;;;7.28;;
46721;SDS011;32455;43.430;23.136;2023-08-30T07:06:37;12.43;;;8.05;;
46721;SDS011;32455;43.430;23.136;2023-08-30T07:09:23;11.15;;;7.10;;
46721;SDS011;32455;43.430;23.136;2023-08-30T07:12:13;11.63;;;7.28;;
46721;SDS011;32455;43.430;23.136;2023-08-30T07:14:58;10.50;;;7.95;;
46721;SDS011;32455;43.430;23.136;2023-08-30T07:17:44;13.60;;;7.68;;
46721;SDS011;32455;43.430;23.136;2023-08-30T07:20:29;13.10;;;7.32;;
46721;SDS011;32455;43.430;23.136;2023-08-30T07:23:14;10.10;;;7.22;;
46721;SDS011;32455;43.430;23.136;2023-08-30T07:25:59;8.60;;;6.78;;
46721;SDS011;32455;43.430;23.136;2023-08-30T07:28:45;9.73;;;7.03;;
46721;SDS011;32455;43.430;23.136;2023-08-30T07:31:31;11.65;;;7.90;;
46721;SDS011;32455;43.430;23.136;2023-08-30T07:34:17;12.60;;;7.40;;
46721;SDS011;32455;43.430;23.136;2023-08-30T07:37:02;10.02;;;6.78;;
46721;SDS011;32455;43.430;23.136;2023-08-30T07:39:48;12.65;;;6.93;;
46721;SDS011;32455;43.430;23.136;2023-08-30T07:42:36;12.38;;;7.00;;
46721;SDS011;32455;43.430;23.136;2023-08-30T07:45:21;13.93;;;6.30;;
46721;SDS011;32455;43.430;23.136;2023-08-30T07:48:07;10.65;;;6.85;;
46721;SDS011;32455;43.430;23.136;2023-08-30T07:50:52;6.00;;;5.40;;
46721;SDS011;32455;43.430;23.136;2023-08-30T07:53:38;7.10;;;4.60;;
46721;SDS011;32455;43.430;23.136;2023-08-30T07:56:23;6.53;;;4.50;;
46721;SDS011;32455;43.430;23.136;2023-08-30T07:59:09;6.25;;;4.57;;
46721;SDS011;32455;43.430;23.136;2023-08-30T08:01:54;5.88;;;4.85;;
46721;SDS011;32455;43.430;23.136;2023-08-30T08:04:40;4.78;;;4.28;;
46721;SDS011;32455;43.430;23.136;2023-08-30T08:07:24;7.03;;;5.03;;
46721;SDS011;32455;43.430;23.136;2023-08-30T08:10:08;7.72;;;5.28;;
46721;SDS011;32455;43.430;23.136;2023-08-30T08:12:54;6.63;;;4.50;;
46721;SDS011;32455;43.430;23.136;2023-08-30T08:15:39;5.63;;;4.60;;
46721;SDS011;32455;43.430;23.136;2023-08-30T08:18:24;10.90;;;4.80;;
46721;SDS011;32455;43.430;23.136;2023-08-30T08:21:10;6.13;;;4.85;;
46721;SDS011;32455;43.430;23.136;2023-08-30T08:23:55;7.22;;;5.63;;
46721;SDS011;32455;43.430;23.136;2023-08-30T08:26:41;6.60;;;5.43;;
46721;SDS011;32455;43.430;23.136;2023-08-30T08:29:26;7.43;;;5.70;;
46721;SDS011;32455;43.430;23.136;2023-08-30T08:32:13;7.05;;;5.53;;
46721;SDS011;32455;43.430;23.136;2023-08-30T08:34:58;8.98;;;5.07;;
46721;SDS011;32455;43.430;23.136;2023-08-30T08:37:44;6.20;;;5.20;;
46721;SDS011;32455;43.430;23.136;2023-08-30T08:40:29;6.85;;;5.53;;
46721;SDS011;32455;43.430;23.136;2023-08-30T08:43:14;7.72;;;5.80;;
46721;SDS011;32455;43.430;23.136;2023-08-30T08:46:03;7.93;;;5.30;;
46721;SDS011;32455;43.430;23.136;2023-08-30T08:48:51;6.63;;;5.28;;
46721;SDS011;32455;43.430;23.136;2023-08-30T08:51:40;5.95;;;5.38;;
46721;SDS011;32455;43.430;23.136;2023-08-30T08:54:27;7.30;;;5.65;;
46721;SDS011;32455;43.430;23.136;2023-08-30T08:57:13;8.27;;;5.32;;
46721;SDS011;32455;43.430;23.136;2023-08-30T08:59:58;7.18;;;5.18;;
46721;SDS011;32455;43.430;23.136;2023-08-30T09:02:43;5.93;;;5.32;;
46721;SDS011;32455;43.430;23.136;2023-08-30T09:05:31;7.50;;;5.38;;
46721;SDS011;32455;43.430;23.136;2023-08-30T09:08:16;7.70;;;5.38;;
46721;SDS011;32455;43.430;23.136;2023-08-30T09:11:01;9.93;;;5.70;;
46721;SDS011;32455;43.430;23.136;2023-08-30T09:13:47;5.72;;;5.13;;
46721;SDS011;32455;43.430;23.136;2023-08-30T09:16:33;7.45;;;5.20;;
46721;SDS011;32455;43.430;23.136;2023-08-30T09:19:19;8.43;;;5.00;;
46721;SDS011;32455;43.430;23.136;2023-08-30T09:22:05;7.55;;;5.90;;
46721;SDS011;32455;43.430;23.136;2023-08-30T09:24:51;7.78;;;5.90;;
46721;SDS011;32455;43.430;23.136;2023-08-30T09:27:37;10.82;;;5.70;;
46721;SDS011;32455;43.430;23.136;2023-08-30T09:30:26;8.15;;;5.32;;
46721;SDS011;32455;43.430;23.136;2023-08-30T09:33:12;5.75;;;5.18;;
46721;SDS011;32455;43.430;23.136;2023-08-30T09:35:57;9.85;;;5.32;;
46721;SDS011;32455;43.430;23.136;2023-08-30T09:38:51;7.53;;;5.18;;
46721;SDS011;32455;43.430;23.136;2023-08-30T09:41:46;13.00;;;5.93;;
46721;SDS011;32455;43.430;23.136;2023-08-30T09:44:33;9.68;;;5.65;;
46721;SDS011;32455;43.430;23.136;2023-08-30T09:47:19;6.07;;;5.15;;
46721;SDS011;32455;43.430;23.136;2023-08-30T09:50:05;7.95;;;4.30;;
46721;SDS011;32455;43.430;23.136;2023-08-30T09:52:53;6.22;;;4.78;;
46721;SDS011;32455;43.430;23.136;2023-08-30T09:55:39;8.77;;;4.85;;
46721;SDS011;32455;43.430;23.136;2023-08-30T09:58:25;8.65;;;5.50;;
46721;SDS011;32455;43.430;23.136;2023-08-30T10:01:12;9.00;;;5.90;;
46721;SDS011;32455;43.430;23.136;2023-08-30T10:03:58;7.25;;;4.80;;
46721;SDS011;32455;43.430;23.136;2023-08-30T10:06:44;8.27;;;5.32;;
46721;SDS011;32455;43.430;23.136;2023-08-30T10:09:31;7.03;;;4.90;;
46721;SDS011;32455;43.430;23.136;2023-08-30T10:12:18;7.10;;;4.78;;
46721;SDS011;32455;43.430;23.136;2023-08-30T10:15:05;8.10;;;4.90;;
46721;SDS011;32455;43.430;23.136;2023-08-30T10:17:52;13.32;;;5.32;;
46721;SDS011;32455;43.430;23.136;2023-08-30T10:20:39;9.88;;;4.72;;
46721;SDS011;32455;43.430;23.136;2023-08-30T10:23:25;7.90;;;4.43;;
46721;SDS011;32455;43.430;23.136;2023-08-30T10:26:11;9.13;;;4.10;;
46721;SDS011;32455;43.430;23.136;2023-08-30T10:28:57;8.90;;;4.38;;
46721;SDS011;32455;43.430;23.136;2023-08-30T10:31:44;6.10;;;4.30;;
46721;SDS011;32455;43.430;23.136;2023-08-30T10:34:32;7.30;;;4.57;;
46721;SDS011;32455;43.430;23.136;2023-08-30T10:37:25;8.87;;;4.80;;
46721;SDS011;32455;43.430;23.136;2023-08-30T10:40:12;8.32;;;4.68;;
46721;SDS011;32455;43.430;23.136;2023-08-30T10:43:04;6.40;;;4.15;;
46721;SDS011;32455;43.430;23.136;2023-08-30T10:45:58;5.80;;;3.90;;
46721;SDS011;32455;43.430;23.136;2023-08-30T10:48:46;6.72;;;4.40;;
46721;SDS011;32455;43.430;23.136;2023-08-30T10:51:37;7.53;;;4.50;;
46721;SDS011;32455;43.430;23.136;2023-08-30T10:54:23;10.27;;;4.35;;
46721;SDS011;32455;43.430;23.136;2023-08-30T10:57:15;7.22;;;4.32;;
46721;SDS011;32455;43.430;23.136;2023-08-30T11:00:06;8.88;;;4.88;;
46721;SDS011;32455;43.430;23.136;2023-08-30T11:02:53;16.45;;;5.05;;
46721;SDS011;32455;43.430;23.136;2023-08-30T11:05:40;4.93;;;4.28;;
46721;SDS011;32455;43.430;23.136;2023-08-30T11:08:25;5.95;;;3.90;;
46721;SDS011;32455;43.430;23.136;2023-08-30T11:11:11;7.35;;;4.35;;
46721;SDS011;32455;43.430;23.136;2023-08-30T11:14:03;5.63;;;4.10;;
46721;SDS011;32455;43.430;23.136;2023-08-30T11:16:51;5.63;;;4.22;;
46721;SDS011;32455;43.430;23.136;2023-08-30T11:19:36;9.43;;;4.45;;
46721;SDS011;32455;43.430;23.136;2023-08-30T11:22:22;7.65;;;4.55;;
46721;SDS011;32455;43.430;23.136;2023-08-30T11:25:09;10.60;;;5.05;;
46721;SDS011;32455;43.430;23.136;2023-08-30T11:28:03;7.22;;;4.80;;
46721;SDS011;32455;43.430;23.136;2023-08-30T11:30:53;8.57;;;5.13;;
46721;SDS011;32455;43.430;23.136;2023-08-30T11:33:39;8.55;;;4.90;;
46721;SDS011;32455;43.430;23.136;2023-08-30T11:36:28;7.72;;;5.40;;
46721;SDS011;32455;43.430;23.136;2023-08-30T11:39:15;11.00;;;5.82;;
46721;SDS011;32455;43.430;23.136;2023-08-30T11:42:02;7.43;;;5.20;;
46721;SDS011;32455;43.430;23.136;2023-08-30T11:44:50;8.57;;;5.55;;
46721;SDS011;32455;43.430;23.136;2023-08-30T11:47:36;10.00;;;5.95;;
46721;SDS011;32455;43.430;23.136;2023-08-30T11:50:21;7.80;;;5.88;;
46721;SDS011;32455;43.430;23.136;2023-08-30T11:53:07;9.65;;;6.50;;
46721;SDS011;32455;43.430;23.136;2023-08-30T11:55:52;6.18;;;5.43;;
46721;SDS011;32455;43.430;23.136;2023-08-30T11:58:38;7.30;;;5.80;;
46721;SDS011;32455;43.430;23.136;2023-08-30T12:01:23;7.88;;;5.45;;
46721;SDS011;32455;43.430;23.136;2023-08-30T12:04:10;6.82;;;5.90;;
46721;SDS011;32455;43.430;23.136;2023-08-30T12:06:56;7.32;;;5.97;;
46721;SDS011;32455;43.430;23.136;2023-08-30T12:09:41;9.52;;;5.70;;
46721;SDS011;32455;43.430;23.136;2023-08-30T12:12:26;6.85;;;5.60;;
46721;SDS011;32455;43.430;23.136;2023-08-30T12:15:12;7.45;;;5.32;;
46721;SDS011;32455;43.430;23.136;2023-08-30T12:18:05;8.63;;;5.28;;
46721;SDS011;32455;43.430;23.136;2023-08-30T12:20:53;7.82;;;5.57;;
46721;SDS011;32455;43.430;23.136;2023-08-30T12:23:48;7.03;;;5.60;;
46721;SDS011;32455;43.430;23.136;2023-08-30T12:26:33;10.90;;;5.35;;
46721;SDS011;32455;43.430;23.136;2023-08-30T12:29:19;6.25;;;5.10;;
46721;SDS011;32455;43.430;23.136;2023-08-30T12:32:04;6.50;;;4.95;;
46721;SDS011;32455;43.430;23.136;2023-08-30T12:34:50;5.97;;;4.85;;
46721;SDS011;32455;43.430;23.136;2023-08-30T12:37:35;9.05;;;5.25;;
46721;SDS011;32455;43.430;23.136;2023-08-30T12:40:21;7.93;;;5.53;;
46721;SDS011;32455;43.430;23.136;2023-08-30T12:43:06;9.00;;;5.53;;
46721;SDS011;32455;43.430;23.136;2023-08-30T12:45:51;9.27;;;4.70;;
46721;SDS011;32455;43.430;23.136;2023-08-30T12:48:37;8.10;;;5.47;;
46721;SDS011;32455;43.430;23.136;2023-08-30T12:51:22;9.07;;;4.93;;
46721;SDS011;32455;43.430;23.136;2023-08-30T12:54:07;7.60;;;4.75;;
46721;SDS011;32455;43.430;23.136;2023-08-30T12:56:51;5.90;;;4.65;;
46721;SDS011;32455;43.430;23.136;2023-08-30T12:59:36;8.93;;;5.28;;
46721;SDS011;32455;43.430;23.136;2023-08-30T13:02:21;6.55;;;4.93;;
46721;SDS011;32455;43.430;23.136;2023-08-30T13:05:07;6.90;;;5.10;;
46721;SDS011;32455;43.430;23.136;2023-08-30T13:07:52;6.80;;;5.35;;
46721;SDS011;32455;43.430;23.136;2023-08-30T13:10:37;5.93;;;5.00;;
46721;SDS011;32455;43.430;23.136;2023-08-30T13:13:23;5.13;;;4.50;;
46721;SDS011;32455;43.430;23.136;2023-08-30T13:16:08;8.65;;;5.13;;
46721;SDS011;32455;43.430;23.136;2023-08-30T13:18:53;8.57;;;5.40;;
46721;SDS011;32455;43.430;23.136;2023-08-30T13:21:38;8.55;;;5.32;;
46721;SDS011;32455;43.430;23.136;2023-08-30T13:24:23;8.40;;;5.15;;
46721;SDS011;32455;43.430;23.136;2023-08-30T13:27:09;6.10;;;5.38;;
46721;SDS011;32455;43.430;23.136;2023-08-30T13:29:54;8.07;;;5.30;;
46721;SDS011;32455;43.430;23.136;2023-08-30T13:32:40;8.23;;;5.50;;
46721;SDS011;32455;43.430;23.136;2023-08-30T13:35:25;6.78;;;5.00;;
46721;SDS011;32455;43.430;23.136;2023-08-30T13:38:11;8.65;;;4.85;;
46721;SDS011;32455;43.430;23.136;2023-08-30T13:40:59;5.50;;;4.43;;
46721;SDS011;32455;43.430;23.136;2023-08-30T13:43:48;6.38;;;4.85;;
46721;SDS011;32455;43.430;23.136;2023-08-30T13:46:34;6.47;;;4.50;;
46721;SDS011;32455;43.430;23.136;2023-08-30T13:49:20;6.93;;;4.78;;
46721;SDS011;32455;43.430;23.136;2023-08-30T13:52:05;5.88;;;5.18;;
46721;SDS011;32455;43.430;23.136;2023-08-30T13:54:51;7.65;;;4.97;;
46721;SDS011;32455;43.430;23.136;2023-08-30T13:57:36;10.27;;;5.50;;
46721;SDS011;32455;43.430;23.136;2023-08-30T14:00:21;8.30;;;5.43;;
46721;SDS011;32455;43.430;23.136;2023-08-30T14:03:07;6.82;;;4.82;;
46721;SDS011;32455;43.430;23.136;2023-08-30T14:05:53;8.07;;;5.47;;
46721;SDS011;32455;43.430;23.136;2023-08-30T14:08:38;7.15;;;5.18;;
46721;SDS011;32455;43.430;23.136;2023-08-30T14:11:25;10.18;;;5.38;;
46721;SDS011;32455;43.430;23.136;2023-08-30T14:14:10;8.13;;;5.22;;
46721;SDS011;32455;43.430;23.136;2023-08-30T14:16:57;5.63;;;4.95;;
46721;SDS011;32455;43.430;23.136;2023-08-30T14:19:45;7.63;;;4.95;;
46721;SDS011;32455;43.430;23.136;2023-08-30T14:22:32;11.23;;;5.28;;
46721;SDS011;32455;43.430;23.136;2023-08-30T14:25:36;8.60;;;5.28;;
46721;SDS011;32455;43.430;23.136;2023-08-30T14:28:22;6.57;;;5.15;;
46721;SDS011;32455;43.430;23.136;2023-08-30T14:31:10;7.40;;;5.30;;
46721;SDS011;32455;43.430;23.136;2023-08-30T14:33:56;5.88;;;4.55;;
46721;SDS011;32455;43.430;23.136;2023-08-30T14:36:42;7.07;;;5.20;;
46721;SDS011;32455;43.430;23.136;2023-08-30T14:39:28;7.13;;;4.97;;
46721;SDS011;32455;43.430;23.136;2023-08-30T14:42:13;8.07;;;4.60;;
46721;SDS011;32455;43.430;23.136;2023-08-30T14:44:58;8.80;;;5.50;;
46721;SDS011;32455;43.430;23.136;2023-08-30T14:47:42;8.02;;;4.80;;
46721;SDS011;32455;43.430;23.136;2023-08-30T14:50:27;6.47;;;5.03;;
46721;SDS011;32455;43.430;23.136;2023-08-30T14:53:13;7.35;;;4.78;;
46721;SDS011;32455;43.430;23.136;2023-08-30T14:55:58;8.93;;;4.90;;
46721;SDS011;32455;43.430;23.136;2023-08-30T14:58:44;6.13;;;4.95;;
46721;SDS011;32455;43.430;23.136;2023-08-30T15:01:33;7.20;;;4.40;;
46721;SDS011;32455;43.430;23.136;2023-08-30T15:04:19;7.03;;;3.83;;
46721;SDS011;32455;43.430;23.136;2023-08-30T15:07:04;8.85;;;3.92;;
46721;SDS011;32455;43.430;23.136;2023-08-30T15:09:49;7.88;;;3.92;;
46721;SDS011;32455;43.430;23.136;2023-08-30T15:12:34;9.05;;;4.15;;
46721;SDS011;32455;43.430;23.136;2023-08-30T15:15:19;6.60;;;3.85;;
46721;SDS011;32455;43.430;23.136;2023-08-30T15:18:05;8.02;;;3.85;;
46721;SDS011;32455;43.430;23.136;2023-08-30T15:20:53;7.20;;;4.15;;
46721;SDS011;32455;43.430;23.136;2023-08-30T15:23:39;6.57;;;4.03;;
46721;SDS011;32455;43.430;23.136;2023-08-30T15:26:25;6.28;;;3.95;;
46721;SDS011;32455;43.430;23.136;2023-08-30T15:29:11;7.25;;;4.15;;
46721;SDS011;32455;43.430;23.136;2023-08-30T15:31:56;6.38;;;3.92;;
46721;SDS011;32455;43.430;23.136;2023-08-30T15:34:41;5.30;;;4.00;;
46721;SDS011;32455;43.430;23.136;2023-08-30T15:37:27;8.35;;;3.97;;
46721;SDS011;32455;43.430;23.136;2023-08-30T15:40:13;9.63;;;4.15;;
46721;SDS011;32455;43.430;23.136;2023-08-30T15:42:58;7.50;;;3.40;;
46721;SDS011;32455;43.430;23.136;2023-08-30T15:45:44;7.70;;;4.43;;
46721;SDS011;32455;43.430;23.136;2023-08-30T15:48:30;14.68;;;5.05;;
46721;SDS011;32455;43.430;23.136;2023-08-30T15:51:15;7.75;;;4.90;;
46721;SDS011;32455;43.430;23.136;2023-08-30T15:54:00;8.50;;;4.43;;
46721;SDS011;32455;43.430;23.136;2023-08-30T15:56:46;7.40;;;4.63;;
46721;SDS011;32455;43.430;23.136;2023-08-30T15:59:31;10.23;;;4.53;;
46721;SDS011;32455;43.430;23.136;2023-08-30T16:02:17;7.18;;;4.10;;
46721;SDS011;32455;43.430;23.136;2023-08-30T16:05:02;7.15;;;3.70;;
46721;SDS011;32455;43.430;23.136;2023-08-30T16:07:48;9.57;;;4.35;;
46721;SDS011;32455;43.430;23.136;2023-08-30T16:10:33;7.50;;;4.13;;
46721;SDS011;32455;43.430;23.136;2023-08-30T16:13:18;8.65;;;4.78;;
46721;SDS011;32455;43.430;23.136;2023-08-30T16:16:04;7.90;;;4.30;;
46721;SDS011;32455;43.430;23.136;2023-08-30T16:18:49;8.40;;;4.10;;
46721;SDS011;32455;43.430;23.136;2023-08-30T16:21:34;8.98;;;4.05;;
46721;SDS011;32455;43.430;23.136;2023-08-30T16:24:20;9.43;;;4.57;;
46721;SDS011;32455;43.430;23.136;2023-08-30T16:27:07;8.65;;;4.43;;